sensor_id;sensor_type;location;lat;lon;timestamp;pressure;altitude;pressure_sealevel;temperature;humidity
49843;BME280;55559;48.898;9.184;2023-04-26T00:01:38;98484.66;;;6.10;100.00
49843;BME280;55559;48.898;9.184;2023-04-26T00:04:06;98479.16;;;6.13;100.00
49843;BME280;55559;48.898;9.184;2023-04-26T00:06:35;98476.75;;;6.10;100.00
49843;BME280;55559;48.898;9.184;2023-04-26T00:09:03;98483.09;;;6.07;100.00
49843;BME280;55559;48.898;9.184;2023-04-26T00:11:31;98472.44;;;6.09;100.00
49843;BME280;55559;48.898;9.184;2023-04-26T00:13:58;98477.47;;;6.12;100.00
49843;BME280;55559;48.898;9.184;2023-04-26T00:16:26;98475.81;;;6.11;100.00
49843;BME280;55559;48.898;9.184;2023-04-26T00:18:53;98465.25;;;6.11;100.00
49843;BME280;55559;48.898;9.184;2023-04-26T00:21:21;98477.06;;;6.05;100.00
49843;BME280;55559;48.898;9.184;2023-04-26T00:23:50;98474.31;;;6.07;100.00
49843;BME280;55559;48.898;9.184;2023-04-26T00:26:17;98469.28;;;6.04;100.00
49843;BME280;55559;48.898;9.184;2023-04-26T00:28:45;98474.00;;;5.99;100.00
49843;BME280;55559;48.898;9.184;2023-04-26T00:31:14;98480.44;;;5.94;100.00
49843;BME280;55559;48.898;9.184;2023-04-26T00:33:41;98482.66;;;5.88;100.00
49843;BME280;55559;48.898;9.184;2023-04-26T00:36:09;98491.31;;;5.77;100.00
49843;BME280;55559;48.898;9.184;2023-04-26T00:38:36;98486.47;;;5.71;100.00
49843;BME280;55559;48.898;9.184;2023-04-26T00:41:05;98487.63;;;5.67;100.00
49843;BME280;55559;48.898;9.184;2023-04-26T00:43:33;98486.97;;;5.63;100.00
49843;BME280;55559;48.898;9.184;2023-04-26T00:46:00;98490.16;;;5.55;100.00
49843;BME280;55559;48.898;9.184;2023-04-26T00:48:28;98483.38;;;5.51;100.00
49843;BME280;55559;48.898;9.184;2023-04-26T00:50:56;98490.03;;;5.44;100.00
49843;BME280;55559;48.898;9.184;2023-04-26T00:53:24;98492.84;;;5.41;100.00
49843;BME280;55559;48.898;9.184;2023-04-26T00:55:52;98502.38;;;5.44;100.00
49843;BME280;55559;48.898;9.184;2023-04-26T00:58:22;98495.09;;;5.47;100.00
49843;BME280;55559;48.898;9.184;2023-04-26T01:00:50;98497.09;;;5.44;100.00
49843;BME280;55559;48.898;9.184;2023-04-26T01:03:18;98495.28;;;5.44;100.00
49843;BME280;55559;48.898;9.184;2023-04-26T01:05:46;98497.00;;;5.45;100.00
49843;BME280;55559;48.898;9.184;2023-04-26T01:08:14;98494.34;;;5.45;100.00
49843;BME280;55559;48.898;9.184;2023-04-26T01:10:46;98492.84;;;5.41;100.00
49843;BME280;55559;48.898;9.184;2023-04-26T01:13:14;98488.66;;;5.38;100.00
49843;BME280;55559;48.898;9.184;2023-04-26T01:15:44;98491.38;;;5.37;100.00
49843;BME280;55559;48.898;9.184;2023-04-26T01:18:12;98486.00;;;5.38;100.00
49843;BME280;55559;48.898;9.184;2023-04-26T01:20:40;98485.28;;;5.36;100.00
49843;BME280;55559;48.898;9.184;2023-04-26T01:23:09;98481.25;;;5.31;100.00
49843;BME280;55559;48.898;9.184;2023-04-26T01:25:37;98483.16;;;5.29;100.00
49843;BME280;55559;48.898;9.184;2023-04-26T01:28:05;98487.59;;;5.28;100.00
49843;BME280;55559;48.898;9.184;2023-04-26T01:30:32;98486.50;;;5.31;100.00
49843;BME280;55559;48.898;9.184;2023-04-26T01:33:02;98483.88;;;5.31;100.00
49843;BME280;55559;48.898;9.184;2023-04-26T01:35:30;98477.66;;;5.32;100.00
49843;BME280;55559;48.898;9.184;2023-04-26T01:37:58;98485.97;;;5.26;100.00
49843;BME280;55559;48.898;9.184;2023-04-26T01:40:28;98491.69;;;5.19;100.00
49843;BME280;55559;48.898;9.184;2023-04-26T01:42:56;98487.84;;;5.11;100.00
49843;BME280;55559;48.898;9.184;2023-04-26T01:45:23;98483.09;;;5.16;100.00
49843;BME280;55559;48.898;9.184;2023-04-26T01:48:09;98484.66;;;5.06;100.00
49843;BME280;55559;48.898;9.184;2023-04-26T01:50:37;98481.50;;;5.00;100.00
49843;BME280;55559;48.898;9.184;2023-04-26T01:53:04;98494.03;;;4.97;100.00
49843;BME280;55559;48.898;9.184;2023-04-26T01:55:34;98489.59;;;4.97;100.00
49843;BME280;55559;48.898;9.184;2023-04-26T01:58:01;98485.59;;;4.92;100.00
49843;BME280;55559;48.898;9.184;2023-04-26T02:00:29;98477.47;;;4.95;100.00
49843;BME280;55559;48.898;9.184;2023-04-26T02:02:56;98489.72;;;4.96;100.00
49843;BME280;55559;48.898;9.184;2023-04-26T02:05:24;98480.03;;;4.96;100.00
49843;BME280;55559;48.898;9.184;2023-04-26T02:07:51;98476.13;;;5.02;100.00
49843;BME280;55559;48.898;9.184;2023-04-26T02:10:19;98484.75;;;5.04;100.00
49843;BME280;55559;48.898;9.184;2023-04-26T02:12:48;98479.41;;;5.06;100.00
49843;BME280;55559;48.898;9.184;2023-04-26T02:15:16;98482.91;;;5.06;100.00
49843;BME280;55559;48.898;9.184;2023-04-26T02:17:43;98481.84;;;5.09;100.00
49843;BME280;55559;48.898;9.184;2023-04-26T02:20:13;98479.09;;;5.10;100.00
49843;BME280;55559;48.898;9.184;2023-04-26T02:22:41;98475.44;;;5.13;100.00
49843;BME280;55559;48.898;9.184;2023-04-26T02:25:09;98477.09;;;5.14;100.00
49843;BME280;55559;48.898;9.184;2023-04-26T02:27:37;98477.28;;;5.11;100.00
49843;BME280;55559;48.898;9.184;2023-04-26T02:30:07;98481.00;;;5.08;100.00
49843;BME280;55559;48.898;9.184;2023-04-26T02:32:35;98477.19;;;5.12;100.00
49843;BME280;55559;48.898;9.184;2023-04-26T02:35:03;98474.56;;;5.12;100.00
49843;BME280;55559;48.898;9.184;2023-04-26T02:37:31;98481.63;;;5.12;100.00
49843;BME280;55559;48.898;9.184;2023-04-26T02:39:59;98479.84;;;5.12;100.00
49843;BME280;55559;48.898;9.184;2023-04-26T02:42:26;98481.72;;;5.10;100.00
49843;BME280;55559;48.898;9.184;2023-04-26T02:44:54;98495.84;;;5.09;100.00
49843;BME280;55559;48.898;9.184;2023-04-26T02:47:24;98482.66;;;5.09;100.00
49843;BME280;55559;48.898;9.184;2023-04-26T02:49:51;98491.53;;;5.08;100.00
49843;BME280;55559;48.898;9.184;2023-04-26T02:52:19;98488.25;;;5.05;100.00
49843;BME280;55559;48.898;9.184;2023-04-26T02:54:47;98490.91;;;5.05;100.00
49843;BME280;55559;48.898;9.184;2023-04-26T02:57:14;98493.00;;;4.99;100.00
49843;BME280;55559;48.898;9.184;2023-04-26T02:59:42;98494.22;;;4.94;100.00
49843;BME280;55559;48.898;9.184;2023-04-26T03:02:10;98491.78;;;4.91;100.00
49843;BME280;55559;48.898;9.184;2023-04-26T03:04:39;98492.00;;;4.88;100.00
49843;BME280;55559;48.898;9.184;2023-04-26T03:07:06;98495.03;;;4.81;100.00
49843;BME280;55559;48.898;9.184;2023-04-26T03:09:35;98492.31;;;4.83;100.00
49843;BME280;55559;48.898;9.184;2023-04-26T03:12:05;98498.13;;;4.88;100.00
49843;BME280;55559;48.898;9.184;2023-04-26T03:14:33;98491.03;;;4.76;100.00
49843;BME280;55559;48.898;9.184;2023-04-26T03:17:01;98505.22;;;4.73;100.00
49843;BME280;55559;48.898;9.184;2023-04-26T03:19:31;98493.75;;;4.74;100.00
49843;BME280;55559;48.898;9.184;2023-04-26T03:22:00;98499.41;;;4.68;100.00
49843;BME280;55559;48.898;9.184;2023-04-26T03:24:28;98499.78;;;4.62;100.00
49843;BME280;55559;48.898;9.184;2023-04-26T03:26:56;98493.22;;;4.55;100.00
49843;BME280;55559;48.898;9.184;2023-04-26T03:29:25;98507.53;;;4.51;100.00
49843;BME280;55559;48.898;9.184;2023-04-26T03:31:52;98508.56;;;4.48;100.00
49843;BME280;55559;48.898;9.184;2023-04-26T03:34:20;98506.13;;;4.45;100.00
49843;BME280;55559;48.898;9.184;2023-04-26T03:36:47;98514.34;;;4.40;100.00
49843;BME280;55559;48.898;9.184;2023-04-26T03:39:16;98516.19;;;4.38;100.00
49843;BME280;55559;48.898;9.184;2023-04-26T03:41:43;98512.72;;;4.38;100.00
49843;BME280;55559;48.898;9.184;2023-04-26T03:44:12;98507.38;;;4.39;100.00
49843;BME280;55559;48.898;9.184;2023-04-26T03:46:41;98511.25;;;4.34;100.00
49843;BME280;55559;48.898;9.184;2023-04-26T03:49:09;98501.28;;;4.24;100.00
49843;BME280;55559;48.898;9.184;2023-04-26T03:51:37;98506.06;;;4.18;100.00
49843;BME280;55559;48.898;9.184;2023-04-26T03:54:04;98511.53;;;4.15;100.00
49843;BME280;55559;48.898;9.184;2023-04-26T03:56:33;98503.84;;;4.12;100.00
49843;BME280;55559;48.898;9.184;2023-04-26T03:59:01;98511.53;;;4.15;100.00
49843;BME280;55559;48.898;9.184;2023-04-26T04:01:29;98516.13;;;4.11;100.00
49843;BME280;55559;48.898;9.184;2023-04-26T04:03:56;98517.84;;;4.12;100.00
49843;BME280;55559;48.898;9.184;2023-04-26T04:06:24;98518.84;;;4.09;100.00
49843;BME280;55559;48.898;9.184;2023-04-26T04:08:51;98517.75;;;4.14;100.00
49843;BME280;55559;48.898;9.184;2023-04-26T04:11:19;98524.22;;;4.08;100.00
49843;BME280;55559;48.898;9.184;2023-04-26T04:13:48;98520.66;;;4.09;100.00
49843;BME280;55559;48.898;9.184;2023-04-26T04:16:16;98518.22;;;4.06;100.00
49843;BME280;55559;48.898;9.184;2023-04-26T04:18:43;98514.19;;;4.00;100.00
49843;BME280;55559;48.898;9.184;2023-04-26T04:21:11;98519.63;;;3.97;100.00
49843;BME280;55559;48.898;9.184;2023-04-26T04:23:38;98514.53;;;3.94;100.00
49843;BME280;55559;48.898;9.184;2023-04-26T04:26:09;98514.53;;;3.94;100.00
49843;BME280;55559;48.898;9.184;2023-04-26T04:28:38;98509.75;;;4.01;100.00
49843;BME280;55559;48.898;9.184;2023-04-26T04:31:07;98517.81;;;3.98;100.00
49843;BME280;55559;48.898;9.184;2023-04-26T04:33:36;98522.34;;;4.10;100.00
49843;BME280;55559;48.898;9.184;2023-04-26T04:36:05;98520.00;;;4.05;100.00
49843;BME280;55559;48.898;9.184;2023-04-26T04:38:33;98531.19;;;4.09;100.00
49843;BME280;55559;48.898;9.184;2023-04-26T04:41:03;98534.94;;;4.05;100.00
49843;BME280;55559;48.898;9.184;2023-04-26T04:43:32;98535.03;;;4.03;100.00
49843;BME280;55559;48.898;9.184;2023-04-26T04:46:00;98541.13;;;4.04;100.00
49843;BME280;55559;48.898;9.184;2023-04-26T04:48:29;98535.59;;;3.94;100.00
49843;BME280;55559;48.898;9.184;2023-04-26T04:50:56;98532.66;;;4.13;100.00
49843;BME280;55559;48.898;9.184;2023-04-26T04:53:24;98538.59;;;4.31;100.00
49843;BME280;55559;48.898;9.184;2023-04-26T04:55:52;98548.47;;;4.42;100.00
49843;BME280;55559;48.898;9.184;2023-04-26T04:58:20;98547.22;;;4.47;100.00
49843;BME280;55559;48.898;9.184;2023-04-26T05:00:50;98548.16;;;4.61;100.00
49843;BME280;55559;48.898;9.184;2023-04-26T05:03:31;98557.66;;;4.49;100.00
49843;BME280;55559;48.898;9.184;2023-04-26T05:06:00;98561.69;;;4.55;100.00
49843;BME280;55559;48.898;9.184;2023-04-26T05:08:28;98566.78;;;4.43;100.00
49843;BME280;55559;48.898;9.184;2023-04-26T05:11:00;98570.38;;;4.42;100.00
49843;BME280;55559;48.898;9.184;2023-04-26T05:13:28;98565.09;;;4.28;100.00
49843;BME280;55559;48.898;9.184;2023-04-26T05:15:55;98565.75;;;4.32;100.00
49843;BME280;55559;48.898;9.184;2023-04-26T05:18:23;98576.09;;;4.49;100.00
49843;BME280;55559;48.898;9.184;2023-04-26T05:20:52;98568.66;;;4.56;100.00
49843;BME280;55559;48.898;9.184;2023-04-26T05:23:19;98571.53;;;4.80;100.00
49843;BME280;55559;48.898;9.184;2023-04-26T05:25:47;98564.88;;;5.01;100.00
49843;BME280;55559;48.898;9.184;2023-04-26T05:28:34;98569.66;;;5.09;100.00
49843;BME280;55559;48.898;9.184;2023-04-26T05:31:25;98567.91;;;5.22;100.00
49843;BME280;55559;48.898;9.184;2023-04-26T05:34:06;98566.63;;;5.15;100.00
49843;BME280;55559;48.898;9.184;2023-04-26T05:36:40;98567.63;;;5.27;100.00
49843;BME280;55559;48.898;9.184;2023-04-26T05:39:07;98565.59;;;5.18;100.00
49843;BME280;55559;48.898;9.184;2023-04-26T05:41:35;98573.19;;;5.22;100.00
49843;BME280;55559;48.898;9.184;2023-04-26T05:47:16;98574.66;;;5.54;100.00
49843;BME280;55559;48.898;9.184;2023-04-26T05:49:43;98580.13;;;5.38;100.00
49843;BME280;55559;48.898;9.184;2023-04-26T05:52:12;98583.47;;;5.40;100.00
49843;BME280;55559;48.898;9.184;2023-04-26T05:54:40;98583.16;;;5.45;100.00
49843;BME280;55559;48.898;9.184;2023-04-26T05:57:07;98581.59;;;5.42;100.00
49843;BME280;55559;48.898;9.184;2023-04-26T05:59:35;98588.03;;;5.51;100.00
49843;BME280;55559;48.898;9.184;2023-04-26T06:02:02;98583.75;;;5.63;100.00
49843;BME280;55559;48.898;9.184;2023-04-26T06:04:30;98570.94;;;5.56;100.00
49843;BME280;55559;48.898;9.184;2023-04-26T06:07:11;98576.91;;;5.60;100.00
49843;BME280;55559;48.898;9.184;2023-04-26T06:09:38;98583.09;;;5.99;100.00
49843;BME280;55559;48.898;9.184;2023-04-26T06:12:06;98579.38;;;6.90;100.00
49843;BME280;55559;48.898;9.184;2023-04-26T06:14:38;98568.94;;;8.42;100.00
49843;BME280;55559;48.898;9.184;2023-04-26T06:17:10;98565.28;;;8.31;100.00
49843;BME280;55559;48.898;9.184;2023-04-26T06:19:37;98571.19;;;8.12;100.00
49843;BME280;55559;48.898;9.184;2023-04-26T06:22:05;98573.19;;;7.86;100.00
49843;BME280;55559;48.898;9.184;2023-04-26T06:24:34;98568.56;;;8.46;100.00
49843;BME280;55559;48.898;9.184;2023-04-26T06:27:02;98575.16;;;8.29;100.00
49843;BME280;55559;48.898;9.184;2023-04-26T06:29:31;98575.25;;;7.47;100.00
49843;BME280;55559;48.898;9.184;2023-04-26T06:32:00;98583.53;;;6.81;100.00
49843;BME280;55559;48.898;9.184;2023-04-26T06:34:27;98582.31;;;6.36;100.00
49843;BME280;55559;48.898;9.184;2023-04-26T06:36:55;98593.63;;;6.12;100.00
49843;BME280;55559;48.898;9.184;2023-04-26T06:39:24;98592.69;;;6.13;100.00
49843;BME280;55559;48.898;9.184;2023-04-26T06:41:53;98587.81;;;5.94;100.00
49843;BME280;55559;48.898;9.184;2023-04-26T06:44:27;98584.38;;;6.19;100.00
49843;BME280;55559;48.898;9.184;2023-04-26T06:47:01;98588.06;;;6.17;100.00
49843;BME280;55559;48.898;9.184;2023-04-26T06:49:28;98586.66;;;6.37;100.00
49843;BME280;55559;48.898;9.184;2023-04-26T06:51:56;98589.84;;;6.29;100.00
49843;BME280;55559;48.898;9.184;2023-04-26T06:54:27;98580.09;;;7.05;100.00
49843;BME280;55559;48.898;9.184;2023-04-26T06:56:56;98572.44;;;8.53;100.00
49843;BME280;55559;48.898;9.184;2023-04-26T06:59:23;98573.47;;;8.96;100.00
49843;BME280;55559;48.898;9.184;2023-04-26T07:01:51;98578.19;;;8.25;100.00
49843;BME280;55559;48.898;9.184;2023-04-26T07:04:20;98579.47;;;7.96;100.00
49843;BME280;55559;48.898;9.184;2023-04-26T07:06:47;98577.16;;;7.92;100.00
49843;BME280;55559;48.898;9.184;2023-04-26T07:09:15;98569.25;;;8.26;100.00
49843;BME280;55559;48.898;9.184;2023-04-26T07:11:44;98570.19;;;7.55;100.00
49843;BME280;55559;48.898;9.184;2023-04-26T07:14:14;98566.75;;;7.77;100.00
49843;BME280;55559;48.898;9.184;2023-04-26T07:16:42;98555.22;;;7.78;100.00
49843;BME280;55559;48.898;9.184;2023-04-26T07:19:09;98557.06;;;7.54;100.00
49843;BME280;55559;48.898;9.184;2023-04-26T07:21:37;98550.13;;;7.53;100.00
49843;BME280;55559;48.898;9.184;2023-04-26T07:24:04;98560.72;;;7.29;100.00
49843;BME280;55559;48.898;9.184;2023-04-26T07:26:34;98555.56;;;7.27;100.00
49843;BME280;55559;48.898;9.184;2023-04-26T07:29:02;98551.75;;;7.42;100.00
49843;BME280;55559;48.898;9.184;2023-04-26T07:31:31;98552.31;;;7.35;100.00
49843;BME280;55559;48.898;9.184;2023-04-26T07:33:58;98559.91;;;7.39;100.00
49843;BME280;55559;48.898;9.184;2023-04-26T07:36:26;98556.72;;;7.58;100.00
49843;BME280;55559;48.898;9.184;2023-04-26T07:38:53;98551.09;;;7.63;100.00
49843;BME280;55559;48.898;9.184;2023-04-26T07:41:21;98547.25;;;7.67;100.00
49843;BME280;55559;48.898;9.184;2023-04-26T07:43:48;98544.56;;;7.91;99.99
49843;BME280;55559;48.898;9.184;2023-04-26T07:46:16;98557.75;;;7.80;100.00
49843;BME280;55559;48.898;9.184;2023-04-26T07:48:45;98557.31;;;7.86;97.15
49843;BME280;55559;48.898;9.184;2023-04-26T07:51:12;98552.28;;;7.94;100.00
49843;BME280;55559;48.898;9.184;2023-04-26T07:53:40;98554.53;;;7.88;99.81
49843;BME280;55559;48.898;9.184;2023-04-26T07:56:08;98554.91;;;7.94;95.98
49843;BME280;55559;48.898;9.184;2023-04-26T07:58:36;98549.53;;;8.18;95.47
49843;BME280;55559;48.898;9.184;2023-04-26T08:01:05;98557.09;;;8.34;92.67
49843;BME280;55559;48.898;9.184;2023-04-26T08:03:32;98551.22;;;8.42;93.95
49843;BME280;55559;48.898;9.184;2023-04-26T08:06:01;98551.56;;;8.37;85.05
49843;BME280;55559;48.898;9.184;2023-04-26T08:08:29;98552.69;;;8.46;84.89
49843;BME280;55559;48.898;9.184;2023-04-26T08:10:58;98549.31;;;8.55;84.29
49843;BME280;55559;48.898;9.184;2023-04-26T08:13:25;98555.44;;;8.56;78.66
49843;BME280;55559;48.898;9.184;2023-04-26T08:15:52;98549.78;;;8.72;83.95
49843;BME280;55559;48.898;9.184;2023-04-26T08:18:20;98558.88;;;9.02;81.22
49843;BME280;55559;48.898;9.184;2023-04-26T08:20:47;98550.31;;;8.98;78.15
49843;BME280;55559;48.898;9.184;2023-04-26T08:23:17;98553.06;;;9.19;77.37
49843;BME280;55559;48.898;9.184;2023-04-26T08:25:44;98565.06;;;8.91;73.45
49843;BME280;55559;48.898;9.184;2023-04-26T08:28:12;98552.38;;;9.06;77.27
49843;BME280;55559;48.898;9.184;2023-04-26T08:30:40;98555.84;;;9.39;75.94
49843;BME280;55559;48.898;9.184;2023-04-26T08:33:08;98558.84;;;9.45;74.96
49843;BME280;55559;48.898;9.184;2023-04-26T08:35:35;98554.88;;;9.72;73.77
49843;BME280;55559;48.898;9.184;2023-04-26T08:38:03;98564.56;;;9.62;70.10
49843;BME280;55559;48.898;9.184;2023-04-26T08:40:32;98556.97;;;9.57;69.86
49843;BME280;55559;48.898;9.184;2023-04-26T08:43:00;98544.06;;;9.85;71.46
49843;BME280;55559;48.898;9.184;2023-04-26T08:45:27;98559.13;;;10.05;69.54
49843;BME280;55559;48.898;9.184;2023-04-26T08:47:59;98555.69;;;10.36;70.61
49843;BME280;55559;48.898;9.184;2023-04-26T08:50:29;98557.00;;;10.30;65.93
49843;BME280;55559;48.898;9.184;2023-04-26T08:52:58;98560.81;;;10.06;69.36
49843;BME280;55559;48.898;9.184;2023-04-26T08:55:26;98565.72;;;9.48;68.77
49843;BME280;55559;48.898;9.184;2023-04-26T08:57:55;98567.28;;;9.50;67.05
49843;BME280;55559;48.898;9.184;2023-04-26T09:00:23;98560.94;;;9.30;67.46
49843;BME280;55559;48.898;9.184;2023-04-26T09:02:53;98554.22;;;9.26;67.72
49843;BME280;55559;48.898;9.184;2023-04-26T09:05:21;98560.78;;;9.43;66.89
49843;BME280;55559;48.898;9.184;2023-04-26T09:07:55;98557.59;;;9.82;61.60
49843;BME280;55559;48.898;9.184;2023-04-26T09:10:23;98555.88;;;10.23;60.05
49843;BME280;55559;48.898;9.184;2023-04-26T09:12:51;98553.44;;;10.10;61.59
49843;BME280;55559;48.898;9.184;2023-04-26T09:15:22;98556.75;;;10.02;62.09
49843;BME280;55559;48.898;9.184;2023-04-26T09:17:49;98554.59;;;10.89;61.48
49843;BME280;55559;48.898;9.184;2023-04-26T09:20:19;98552.16;;;11.16;60.30
49843;BME280;55559;48.898;9.184;2023-04-26T09:22:48;98548.75;;;11.14;61.32
49843;BME280;55559;48.898;9.184;2023-04-26T09:25:17;98547.41;;;11.30;62.21
49843;BME280;55559;48.898;9.184;2023-04-26T09:27:45;98546.41;;;11.41;61.22
49843;BME280;55559;48.898;9.184;2023-04-26T09:30:14;98545.69;;;11.48;58.71
49843;BME280;55559;48.898;9.184;2023-04-26T09:32:52;98537.56;;;11.50;56.68
49843;BME280;55559;48.898;9.184;2023-04-26T09:35:28;98542.47;;;11.94;56.78
49843;BME280;55559;48.898;9.184;2023-04-26T09:37:57;98527.97;;;12.16;56.18
49843;BME280;55559;48.898;9.184;2023-04-26T09:40:26;98522.94;;;12.50;55.82
49843;BME280;55559;48.898;9.184;2023-04-26T09:42:58;98523.53;;;13.53;55.56
49843;BME280;55559;48.898;9.184;2023-04-26T09:45:27;98518.66;;;13.31;53.83
49843;BME280;55559;48.898;9.184;2023-04-26T09:48:11;98523.41;;;13.37;52.11
49843;BME280;55559;48.898;9.184;2023-04-26T09:50:39;98525.34;;;13.17;52.98
49843;BME280;55559;48.898;9.184;2023-04-26T09:53:06;98522.72;;;12.89;53.91
49843;BME280;55559;48.898;9.184;2023-04-26T09:55:35;98528.56;;;12.75;52.51
49843;BME280;55559;48.898;9.184;2023-04-26T09:58:07;98529.13;;;12.96;52.22
49843;BME280;55559;48.898;9.184;2023-04-26T10:00:37;98524.50;;;12.71;54.48
49843;BME280;55559;48.898;9.184;2023-04-26T10:03:08;98519.53;;;12.86;52.86
49843;BME280;55559;48.898;9.184;2023-04-26T10:05:36;98519.69;;;13.20;51.63
49843;BME280;55559;48.898;9.184;2023-04-26T10:08:06;98524.47;;;12.98;53.14
49843;BME280;55559;48.898;9.184;2023-04-26T10:10:34;98532.09;;;12.75;51.71
49843;BME280;55559;48.898;9.184;2023-04-26T10:13:02;98527.84;;;12.55;53.17
49843;BME280;55559;48.898;9.184;2023-04-26T10:15:32;98515.03;;;12.58;53.82
49843;BME280;55559;48.898;9.184;2023-04-26T10:17:59;98518.34;;;12.33;51.06
49843;BME280;55559;48.898;9.184;2023-04-26T10:20:28;98511.19;;;12.43;51.73
49843;BME280;55559;48.898;9.184;2023-04-26T10:22:58;98515.91;;;12.21;52.92
49843;BME280;55559;48.898;9.184;2023-04-26T10:25:34;98515.63;;;12.15;55.11
49843;BME280;55559;48.898;9.184;2023-04-26T10:28:03;98510.38;;;12.60;52.67
49843;BME280;55559;48.898;9.184;2023-04-26T10:30:31;98512.47;;;12.29;54.00
49843;BME280;55559;48.898;9.184;2023-04-26T10:33:19;98514.81;;;12.04;53.68
49843;BME280;55559;48.898;9.184;2023-04-26T10:36:09;98507.16;;;12.29;51.90
49843;BME280;55559;48.898;9.184;2023-04-26T10:38:39;98502.53;;;12.31;51.34
49843;BME280;55559;48.898;9.184;2023-04-26T10:41:37;98508.53;;;11.76;53.82
49843;BME280;55559;48.898;9.184;2023-04-26T10:44:36;98508.59;;;11.27;54.83
49843;BME280;55559;48.898;9.184;2023-04-26T10:47:05;98510.25;;;11.48;51.63
49843;BME280;55559;48.898;9.184;2023-04-26T10:49:43;98507.63;;;11.28;52.84
49843;BME280;55559;48.898;9.184;2023-04-26T10:52:16;98507.03;;;11.05;53.19
49843;BME280;55559;48.898;9.184;2023-04-26T10:54:52;98496.97;;;11.19;52.82
49843;BME280;55559;48.898;9.184;2023-04-26T10:57:21;98502.00;;;11.22;50.97
49843;BME280;55559;48.898;9.184;2023-04-26T11:00:17;98492.78;;;12.02;50.67
49843;BME280;55559;48.898;9.184;2023-04-26T11:03:04;98492.09;;;11.90;50.20
49843;BME280;55559;48.898;9.184;2023-04-26T11:05:35;98489.16;;;12.03;49.23
49843;BME280;55559;48.898;9.184;2023-04-26T11:08:06;98487.22;;;12.33;48.98
49843;BME280;55559;48.898;9.184;2023-04-26T11:10:37;98490.38;;;12.74;47.39
49843;BME280;55559;48.898;9.184;2023-04-26T11:13:06;98491.38;;;12.45;48.03
49843;BME280;55559;48.898;9.184;2023-04-26T11:15:34;98484.06;;;12.93;45.71
49843;BME280;55559;48.898;9.184;2023-04-26T11:18:02;98479.16;;;13.34;46.00
49843;BME280;55559;48.898;9.184;2023-04-26T11:20:30;98479.03;;;12.90;48.14
49843;BME280;55559;48.898;9.184;2023-04-26T11:22:58;98471.44;;;13.49;46.72
49843;BME280;55559;48.898;9.184;2023-04-26T11:25:28;98460.50;;;13.07;47.10
49843;BME280;55559;48.898;9.184;2023-04-26T11:27:58;98460.97;;;13.02;46.23
49843;BME280;55559;48.898;9.184;2023-04-26T11:30:27;98455.25;;;13.51;45.83
49843;BME280;55559;48.898;9.184;2023-04-26T11:32:55;98454.34;;;13.68;46.82
49843;BME280;55559;48.898;9.184;2023-04-26T11:35:23;98451.97;;;14.18;44.79
49843;BME280;55559;48.898;9.184;2023-04-26T11:37:51;98443.66;;;14.72;45.44
49843;BME280;55559;48.898;9.184;2023-04-26T11:40:18;98439.16;;;14.80;45.08
49843;BME280;55559;48.898;9.184;2023-04-26T11:42:48;98430.34;;;15.21;44.80
49843;BME280;55559;48.898;9.184;2023-04-26T11:45:15;98432.38;;;14.51;45.25
49843;BME280;55559;48.898;9.184;2023-04-26T11:47:43;98428.19;;;14.49;45.68
49843;BME280;55559;48.898;9.184;2023-04-26T11:50:11;98425.16;;;15.36;43.35
49843;BME280;55559;48.898;9.184;2023-04-26T11:52:39;98422.81;;;15.49;43.17
49843;BME280;55559;48.898;9.184;2023-04-26T11:55:08;98424.13;;;15.61;45.02
49843;BME280;55559;48.898;9.184;2023-04-26T11:57:36;98418.91;;;15.68;41.46
49843;BME280;55559;48.898;9.184;2023-04-26T12:00:13;98403.66;;;15.85;43.07
49843;BME280;55559;48.898;9.184;2023-04-26T12:02:44;98422.94;;;15.72;43.24
49843;BME280;55559;48.898;9.184;2023-04-26T12:05:20;98415.44;;;16.24;40.97
49843;BME280;55559;48.898;9.184;2023-04-26T12:07:51;98419.47;;;15.06;42.12
49843;BME280;55559;48.898;9.184;2023-04-26T12:10:23;98417.09;;;15.69;40.82
49843;BME280;55559;48.898;9.184;2023-04-26T12:12:51;98408.50;;;15.73;41.79
49843;BME280;55559;48.898;9.184;2023-04-26T12:15:24;98420.66;;;15.28;41.35
49843;BME280;55559;48.898;9.184;2023-04-26T12:17:55;98424.97;;;14.88;42.65
49843;BME280;55559;48.898;9.184;2023-04-26T12:20:28;98421.44;;;14.96;42.41
49843;BME280;55559;48.898;9.184;2023-04-26T12:23:03;98412.63;;;15.36;41.52
49843;BME280;55559;48.898;9.184;2023-04-26T12:25:32;98411.91;;;15.34;41.68
49843;BME280;55559;48.898;9.184;2023-04-26T12:28:01;98415.97;;;15.30;40.99
49843;BME280;55559;48.898;9.184;2023-04-26T12:30:31;98406.72;;;15.49;41.25
49843;BME280;55559;48.898;9.184;2023-04-26T12:33:01;98412.25;;;15.56;41.99
49843;BME280;55559;48.898;9.184;2023-04-26T12:35:29;98412.56;;;15.53;41.66
49843;BME280;55559;48.898;9.184;2023-04-26T12:37:56;98405.88;;;15.65;42.00
49843;BME280;55559;48.898;9.184;2023-04-26T12:40:26;98413.75;;;15.17;42.20
49843;BME280;55559;48.898;9.184;2023-04-26T12:42:54;98408.41;;;15.17;42.40
49843;BME280;55559;48.898;9.184;2023-04-26T12:45:23;98404.53;;;15.44;42.26
49843;BME280;55559;48.898;9.184;2023-04-26T12:47:53;98406.91;;;15.31;42.56
49843;BME280;55559;48.898;9.184;2023-04-26T12:50:21;98408.59;;;14.99;43.45
49843;BME280;55559;48.898;9.184;2023-04-26T12:52:48;98399.38;;;15.35;42.90
49843;BME280;55559;48.898;9.184;2023-04-26T12:55:16;98398.00;;;15.72;42.26
49843;BME280;55559;48.898;9.184;2023-04-26T12:57:44;98402.41;;;15.40;43.17
49843;BME280;55559;48.898;9.184;2023-04-26T13:00:13;98403.88;;;15.34;42.72
49843;BME280;55559;48.898;9.184;2023-04-26T13:02:42;98393.84;;;14.87;44.08
49843;BME280;55559;48.898;9.184;2023-04-26T13:05:11;98400.94;;;14.54;45.18
49843;BME280;55559;48.898;9.184;2023-04-26T13:07:41;98400.03;;;15.12;44.58
49843;BME280;55559;48.898;9.184;2023-04-26T13:10:10;98405.03;;;14.66;43.52
49843;BME280;55559;48.898;9.184;2023-04-26T13:12:38;98401.06;;;15.03;44.59
49843;BME280;55559;48.898;9.184;2023-04-26T13:15:06;98400.38;;;15.50;43.42